createdAt,value
2018-10-17T00:01:36.922Z,34.05
2018-10-17T00:04:06.690Z,28.92
2018-10-17T00:06:35.660Z,28.17
2018-10-17T00:09:06.588Z,27.27
2018-10-17T00:11:35.903Z,27.87
2018-10-17T00:14:04.918Z,31.00
2018-10-17T00:16:33.691Z,27.85
2018-10-17T00:19:02.710Z,27.42
2018-10-17T00:21:32.282Z,27.82
2018-10-17T00:24:01.171Z,34.35
2018-10-17T00:26:30.282Z,29.10
2018-10-17T00:28:59.324Z,25.05
2018-10-17T00:31:28.884Z,29.00
2018-10-17T00:33:58.088Z,28.55
2018-10-17T00:36:27.177Z,26.42
2018-10-17T00:38:56.164Z,29.15
2018-10-17T00:41:25.042Z,23.40
2018-10-17T00:43:53.940Z,29.20
2018-10-17T00:46:22.818Z,24.32
2018-10-17T00:48:51.900Z,25.70
2018-10-17T00:51:20.931Z,28.25
2018-10-17T00:53:49.710Z,33.63
2018-10-17T00:56:18.898Z,28.00
2018-10-17T00:58:58.892Z,29.60
2018-10-17T01:01:28.535Z,32.50
2018-10-17T01:03:57.461Z,29.80
2018-10-17T01:06:26.535Z,31.62
2018-10-17T01:08:55.883Z,30.60
2018-10-17T01:11:25.662Z,32.17
2018-10-17T01:13:54.717Z,30.25
2018-10-17T01:16:24.202Z,32.30
2018-10-17T01:18:53.108Z,32.30
2018-10-17T01:21:22.237Z,27.13
2018-10-17T01:23:51.298Z,27.85
2018-10-17T01:26:20.513Z,29.10
2018-10-17T01:28:49.652Z,25.72
2018-10-17T01:31:18.758Z,21.35
2018-10-17T01:33:47.938Z,22.40
2018-10-17T01:36:17.054Z,25.00
2018-10-17T01:38:46.360Z,25.20
2018-10-17T01:41:15.216Z,25.72
2018-10-17T01:43:44.090Z,24.07
2018-10-17T01:46:13.227Z,24.27
2018-10-17T01:48:42.278Z,24.95
2018-10-17T01:51:11.405Z,22.42
2018-10-17T01:53:40.598Z,25.08
2018-10-17T01:56:09.514Z,26.00
2018-10-17T01:58:39.039Z,27.55
2018-10-17T02:01:08.239Z,29.02
2018-10-17T02:03:37.311Z,27.50
2018-10-17T02:06:07.964Z,28.87
2018-10-17T02:08:37.045Z,24.92
2018-10-17T02:11:06.011Z,22.62
2018-10-17T02:13:34.956Z,25.40
2018-10-17T02:16:04.259Z,25.55
2018-10-17T02:18:33.396Z,25.43
2018-10-17T02:21:02.449Z,24.80
2018-10-17T02:23:31.658Z,24.72
2018-10-17T02:26:00.540Z,25.37
2018-10-17T02:28:29.403Z,25.50
2018-10-17T02:30:58.773Z,21.93
2018-10-17T02:33:27.628Z,24.77
2018-10-17T02:35:56.609Z,23.12
2018-10-17T02:38:25.928Z,25.40
2018-10-17T02:40:55.120Z,31.10
2018-10-17T02:43:24.437Z,22.40
2018-10-17T02:45:53.641Z,26.07
2018-10-17T02:48:22.624Z,21.07
2018-10-17T02:50:51.482Z,29.82
2018-10-17T02:53:20.662Z,23.65
2018-10-17T02:55:49.498Z,22.90
2018-10-17T02:58:18.531Z,21.23
2018-10-17T03:00:47.990Z,20.48
2018-10-17T03:03:16.985Z,24.25
2018-10-17T03:05:46.310Z,21.50
2018-10-17T03:08:16.114Z,19.23
2018-10-17T03:10:44.898Z,21.50
2018-10-17T03:13:13.771Z,18.23
2018-10-17T03:15:43.592Z,17.52
2018-10-17T03:18:12.307Z,15.48
2018-10-17T03:20:41.577Z,24.05
2018-10-17T03:23:10.969Z,21.15
2018-10-17T03:25:40.088Z,26.00
2018-10-17T03:28:09.243Z,23.52
2018-10-17T03:30:39.146Z,21.17
2018-10-17T03:33:08.275Z,24.72
2018-10-17T03:35:37.475Z,20.90
2018-10-17T03:38:07.051Z,25.97
2018-10-17T03:40:36.303Z,19.60
2018-10-17T03:43:05.327Z,23.85
2018-10-17T03:45:34.620Z,31.25
2018-10-17T03:48:03.881Z,27.42
2018-10-17T03:50:33.008Z,30.97
2018-10-17T03:53:02.978Z,38.83
2018-10-17T03:55:32.203Z,24.32
2018-10-17T03:58:01.892Z,29.23
2018-10-17T04:00:31.266Z,25.17
2018-10-17T04:03:00.323Z,23.40
2018-10-17T04:05:29.496Z,26.15
2018-10-17T04:07:58.792Z,22.77
2018-10-17T04:10:27.892Z,24.67
2018-10-17T04:12:57.016Z,29.80
2018-10-17T04:15:26.430Z,36.68
2018-10-17T04:17:55.697Z,44.77
2018-10-17T04:20:24.845Z,45.28
2018-10-17T04:22:57.383Z,46.08
2018-10-17T04:25:26.875Z,37.85
2018-10-17T04:27:56.079Z,48.75
2018-10-17T04:30:26.025Z,51.08
2018-10-17T04:32:55.035Z,48.65
2018-10-17T04:35:24.311Z,48.75
2018-10-17T04:37:53.843Z,39.00
2018-10-17T04:40:23.028Z,47.48
2018-10-17T04:42:52.302Z,49.48
2018-10-17T04:45:21.551Z,52.83
2018-10-17T04:47:50.824Z,43.87
2018-10-17T04:50:19.848Z,36.00
2018-10-17T04:52:49.217Z,22.58
2018-10-17T04:55:18.405Z,27.07
2018-10-17T04:57:47.523Z,24.32
2018-10-17T05:00:17.041Z,26.42
2018-10-17T05:02:46.323Z,42.58
2018-10-17T05:05:15.570Z,44.93
2018-10-17T05:07:44.634Z,39.00
2018-10-17T05:10:13.701Z,42.45
2018-10-17T05:12:43.074Z,33.28
2018-10-17T05:15:12.357Z,35.30
2018-10-17T05:17:41.399Z,49.20
2018-10-17T05:20:10.963Z,35.58
2018-10-17T05:22:40.119Z,35.35
2018-10-17T05:25:09.734Z,37.13
2018-10-17T05:27:39.173Z,42.53
2018-10-17T05:30:08.605Z,42.85
2018-10-17T05:32:37.748Z,41.80
2018-10-17T05:35:08.059Z,40.60
2018-10-17T05:37:37.374Z,43.58
2018-10-17T05:40:06.888Z,32.25
2018-10-17T05:42:36.337Z,29.12
2018-10-17T05:45:05.927Z,30.82
2018-10-17T05:47:35.067Z,43.68
2018-10-17T05:50:05.979Z,30.97
2018-10-17T05:52:35.110Z,32.78
2018-10-17T05:55:04.296Z,38.75
2018-10-17T05:57:33.767Z,31.27
2018-10-17T06:00:02.883Z,32.98
2018-10-17T06:02:34.525Z,30.15
2018-10-17T06:05:04.218Z,38.30
2018-10-17T06:07:33.283Z,38.60
2018-10-17T06:10:02.338Z,42.62
2018-10-17T06:12:31.740Z,37.17
2018-10-17T06:15:00.884Z,31.30
2018-10-17T06:17:30.093Z,34.25
2018-10-17T06:19:59.403Z,35.30
2018-10-17T06:22:28.691Z,31.07
2018-10-17T06:24:57.824Z,27.82
2018-10-17T06:27:27.298Z,35.00
2018-10-17T06:29:56.613Z,35.95
2018-10-17T06:32:25.722Z,33.73
2018-10-17T06:34:54.879Z,32.95
2018-10-17T06:37:23.995Z,35.08
2018-10-17T06:39:53.127Z,29.72
2018-10-17T06:42:22.448Z,43.28
2018-10-17T06:44:51.479Z,34.13
2018-10-17T06:47:20.523Z,27.52
2018-10-17T06:49:50.292Z,38.30
2018-10-17T06:52:19.319Z,35.08
2018-10-17T06:54:48.567Z,37.48
2018-10-17T06:57:17.694Z,35.03
2018-10-17T06:59:46.818Z,38.20
2018-10-17T07:02:16.049Z,33.00
2018-10-17T07:04:45.499Z,35.08
2018-10-17T07:07:14.848Z,38.23
2018-10-17T07:09:43.918Z,36.13
2018-10-17T07:12:13.187Z,32.78
2018-10-17T07:14:42.458Z,35.50
2018-10-17T07:17:11.572Z,29.35
2018-10-17T07:19:40.859Z,37.67
2018-10-17T07:22:09.770Z,30.32
2018-10-17T07:24:39.075Z,33.40
2018-10-17T07:27:08.380Z,30.85
2018-10-17T07:29:37.799Z,32.10
2018-10-17T07:32:06.981Z,32.98
2018-10-17T07:34:36.007Z,34.18
2018-10-17T07:37:05.571Z,32.88
2018-10-17T07:39:34.907Z,25.23
2018-10-17T07:42:04.485Z,28.62
2018-10-17T07:44:33.700Z,23.50
2018-10-17T07:47:02.834Z,29.70
2018-10-17T07:49:32.354Z,34.10
2018-10-17T07:52:01.824Z,33.58
2018-10-17T07:54:30.951Z,36.75
2018-10-17T07:57:00.203Z,43.08
2018-10-17T07:59:29.421Z,22.85
2018-10-17T08:01:58.718Z,28.10
2018-10-17T08:04:27.813Z,31.48
2018-10-17T08:06:56.759Z,34.75
2018-10-17T08:09:25.995Z,27.82
2018-10-17T08:11:55.292Z,27.22
2018-10-17T08:14:24.509Z,27.82
2018-10-17T08:16:53.798Z,31.33
2018-10-17T08:19:22.975Z,25.17
2018-10-17T08:21:52.023Z,31.05
2018-10-17T08:24:21.395Z,30.00
2018-10-17T08:26:50.622Z,28.15
2018-10-17T08:29:19.899Z,27.98
2018-10-17T08:31:49.139Z,31.27
2018-10-17T08:34:18.455Z,28.73
2018-10-17T08:36:47.639Z,29.55
2018-10-17T08:39:16.596Z,37.70
2018-10-17T08:41:45.907Z,35.78
2018-10-17T08:44:15.352Z,30.45
2018-10-17T08:46:44.504Z,34.25
2018-10-17T08:49:13.771Z,31.25
2018-10-17T08:51:42.870Z,46.75
2018-10-17T08:54:11.971Z,38.78
2018-10-17T08:56:41.102Z,32.90
2018-10-17T08:59:10.197Z,39.63
2018-10-17T09:01:39.939Z,35.78
2018-10-17T09:04:09.276Z,35.95
2018-10-17T09:06:38.391Z,35.85
2018-10-17T09:09:12.684Z,37.15
2018-10-17T09:11:42.102Z,36.10
2018-10-17T09:14:11.765Z,37.25
2018-10-17T09:16:41.275Z,36.35
2018-10-17T09:19:10.769Z,39.92
2018-10-17T09:21:41.136Z,32.75
2018-10-17T09:24:09.900Z,34.70
2018-10-17T09:26:39.153Z,27.62
2018-10-17T09:29:08.463Z,36.88
2018-10-17T09:31:37.755Z,23.87
2018-10-17T09:34:07.129Z,21.87
2018-10-17T09:36:36.407Z,23.57
2018-10-17T09:39:07.015Z,19.75
2018-10-17T09:41:36.098Z,21.55
2018-10-17T09:44:05.458Z,24.98
2018-10-17T09:46:34.701Z,20.75
2018-10-17T09:49:03.911Z,23.55
2018-10-17T09:51:33.219Z,20.72
2018-10-17T09:54:02.455Z,22.93
2018-10-17T09:56:31.499Z,14.15
2018-10-17T09:59:01.037Z,13.95
2018-10-17T10:02:05.562Z,13.93
2018-10-17T10:04:34.828Z,14.95
2018-10-17T10:07:04.137Z,16.23
2018-10-17T10:09:33.115Z,14.55
2018-10-17T10:12:02.590Z,10.88
2018-10-17T10:14:31.801Z,9.13
2018-10-17T10:17:00.829Z,12.15
2018-10-17T10:19:30.307Z,10.32
2018-10-17T10:21:59.575Z,6.20
2018-10-17T10:24:28.827Z,5.47
2018-10-17T10:26:58.003Z,13.48
2018-10-17T10:29:27.220Z,4.20
2018-10-17T10:31:56.228Z,5.05
2018-10-17T10:34:25.738Z,6.97
2018-10-17T10:36:54.871Z,5.90
2018-10-17T10:39:24.123Z,2.67
2018-10-17T10:41:53.577Z,5.20
2018-10-17T10:44:22.681Z,3.30
2018-10-17T10:46:51.819Z,3.55
2018-10-17T10:49:21.346Z,3.62
2018-10-17T10:51:50.780Z,4.80
2018-10-17T10:54:20.093Z,5.83
2018-10-17T10:56:50.473Z,5.30
2018-10-17T10:59:19.864Z,4.72
2018-10-17T11:01:48.917Z,7.85
2018-10-17T11:04:18.092Z,5.12
2018-10-17T11:06:47.164Z,6.25
2018-10-17T11:09:16.346Z,4.10
2018-10-17T11:11:45.566Z,5.50
2018-10-17T11:14:20.303Z,5.05
2018-10-17T11:16:49.611Z,6.00
2018-10-17T11:19:19.510Z,4.72
2018-10-17T11:21:48.830Z,8.85
2018-10-17T11:24:18.383Z,10.35
2018-10-17T11:26:47.514Z,8.40
2018-10-17T11:29:16.808Z,4.83
2018-10-17T11:31:46.027Z,9.58
2018-10-17T11:34:14.898Z,9.88
2018-10-17T11:36:43.901Z,6.75
2018-10-17T11:39:13.707Z,6.42
2018-10-17T11:41:42.708Z,5.95
2018-10-17T11:44:11.887Z,8.48
2018-10-17T11:46:41.350Z,10.48
2018-10-17T11:49:10.459Z,7.70
2018-10-17T11:51:39.508Z,8.30
2018-10-17T11:54:08.698Z,8.78
2018-10-17T11:56:37.700Z,7.65
2018-10-17T11:59:06.644Z,7.50
2018-10-17T12:01:36.248Z,5.50
2018-10-17T12:04:05.580Z,9.38
2018-10-17T12:06:34.534Z,6.28
2018-10-17T12:09:04.728Z,8.58
2018-10-17T12:11:33.834Z,11.10
2018-10-17T12:14:02.982Z,9.78
2018-10-17T12:16:32.462Z,7.97
2018-10-17T12:19:01.650Z,14.68
2018-10-17T12:21:30.587Z,9.20
2018-10-17T12:24:02.386Z,5.80
2018-10-17T12:26:31.867Z,3.40
2018-10-17T12:29:01.036Z,9.48
2018-10-17T12:31:31.543Z,7.03
2018-10-17T12:34:01.618Z,6.03
2018-10-17T12:36:32.694Z,6.42
2018-10-17T12:39:02.159Z,7.50
2018-10-17T12:41:38.078Z,9.05
2018-10-17T12:44:07.371Z,14.55
2018-10-17T12:46:39.028Z,4.95
2018-10-17T12:52:00.583Z,13.38
2018-10-17T12:54:32.602Z,5.80
2018-10-17T12:57:02.020Z,7.30
2018-10-17T12:59:32.004Z,5.03
2018-10-17T13:02:03.510Z,8.25
2018-10-17T13:04:32.887Z,5.72
2018-10-17T13:07:02.942Z,9.73
2018-10-17T13:09:32.313Z,8.50
2018-10-17T13:12:01.376Z,5.95
2018-10-17T13:14:31.140Z,8.98
2018-10-17T13:17:00.530Z,5.72
2018-10-17T13:19:29.528Z,5.33
2018-10-17T13:21:58.699Z,6.97
2018-10-17T13:24:27.928Z,4.95
2018-10-17T13:26:57.031Z,4.85
2018-10-17T13:29:26.228Z,9.18
2018-10-17T13:31:55.735Z,11.28
2018-10-17T13:34:24.852Z,11.18
2018-10-17T13:36:54.133Z,3.87
2018-10-17T13:39:23.359Z,7.67
2018-10-17T13:41:52.581Z,9.23
2018-10-17T13:44:21.620Z,5.95
2018-10-17T13:46:51.179Z,7.10
2018-10-17T13:49:20.436Z,8.23
2018-10-17T13:51:49.572Z,7.85
2018-10-17T13:54:20.412Z,5.67
2018-10-17T13:56:49.566Z,8.63
2018-10-17T13:59:18.636Z,6.72
2018-10-17T14:01:47.832Z,9.78
2018-10-17T14:04:17.485Z,11.75
2018-10-17T14:06:46.763Z,7.05
2018-10-17T14:09:16.068Z,4.75
2018-10-17T14:11:44.915Z,6.53
2018-10-17T14:14:13.894Z,10.60
2018-10-17T14:16:43.572Z,9.18
2018-10-17T14:19:12.666Z,8.30
2018-10-17T14:21:42.246Z,8.25
2018-10-17T14:24:11.178Z,9.03
2018-10-17T14:26:40.253Z,4.55
2018-10-17T14:29:09.301Z,7.12
2018-10-17T14:31:38.639Z,9.43
2018-10-17T14:34:07.652Z,5.87
2018-10-17T14:36:36.849Z,4.17
2018-10-17T14:39:08.814Z,10.58
2018-10-17T14:41:37.806Z,8.55
2018-10-17T14:44:06.635Z,11.12
2018-10-17T14:46:36.018Z,6.55
2018-10-17T14:49:05.269Z,4.90
2018-10-17T14:51:34.700Z,4.20
2018-10-17T14:54:03.960Z,6.40
2018-10-17T14:56:33.976Z,6.90
2018-10-17T14:59:03.075Z,6.92
2018-10-17T15:01:32.370Z,4.55
2018-10-17T15:04:01.303Z,4.65
2018-10-17T15:06:30.359Z,6.28
2018-10-17T15:08:59.490Z,8.55
2018-10-17T15:11:28.873Z,7.83
2018-10-17T15:13:58.323Z,2.80
2018-10-17T15:16:27.556Z,2.98
2018-10-17T15:18:56.644Z,3.95
2018-10-17T15:21:26.134Z,6.05
2018-10-17T15:23:55.464Z,10.85
2018-10-17T15:26:24.720Z,11.90
2018-10-17T15:28:54.120Z,7.35
2018-10-17T15:31:23.212Z,8.10
2018-10-17T15:33:52.213Z,7.97
2018-10-17T15:36:21.543Z,12.65
2018-10-17T15:38:50.619Z,11.20
2018-10-17T15:41:19.779Z,11.85
2018-10-17T15:43:49.189Z,10.40
2018-10-17T15:46:18.220Z,9.38
2018-10-17T15:48:47.504Z,6.78
2018-10-17T15:51:16.974Z,6.62
2018-10-17T15:53:46.208Z,4.90
2018-10-17T15:56:15.294Z,8.90
2018-10-17T15:58:44.603Z,5.85
2018-10-17T16:01:13.755Z,7.47
2018-10-17T16:03:43.544Z,8.60
2018-10-17T16:06:12.790Z,6.78
2018-10-17T16:08:41.899Z,8.30
2018-10-17T16:11:11.108Z,8.40
2018-10-17T16:13:40.847Z,13.53
2018-10-17T16:16:10.113Z,11.18
2018-10-17T16:18:39.251Z,9.75
2018-10-17T16:21:08.479Z,6.70
2018-10-17T16:23:37.608Z,8.00
2018-10-17T16:26:06.661Z,9.60
2018-10-17T16:28:36.051Z,11.75
2018-10-17T16:31:05.380Z,8.30
2018-10-17T16:33:34.640Z,13.03
2018-10-17T16:36:04.024Z,13.05
2018-10-17T16:38:33.330Z,11.18
2018-10-17T16:41:02.418Z,13.48
2018-10-17T16:43:31.715Z,10.13
2018-10-17T16:46:01.608Z,9.85
2018-10-17T16:48:31.116Z,16.85
2018-10-17T16:51:00.457Z,17.82
2018-10-17T16:53:29.485Z,14.03
2018-10-17T16:55:58.754Z,11.83
2018-10-17T16:58:28.088Z,11.57
2018-10-17T17:00:57.254Z,10.23
2018-10-17T17:03:26.351Z,9.13
2018-10-17T17:05:57.139Z,7.60
2018-10-17T17:08:26.238Z,10.25
2018-10-17T17:10:55.357Z,14.65
2018-10-17T17:13:25.512Z,6.90
2018-10-17T17:15:54.808Z,7.37
2018-10-17T17:18:23.860Z,9.83
2018-10-17T17:20:52.950Z,13.15
2018-10-17T17:23:22.095Z,10.88
2018-10-17T17:25:51.027Z,11.65
2018-10-17T17:28:20.300Z,12.88
2018-10-17T17:30:49.493Z,7.80
2018-10-17T17:33:18.861Z,13.95
2018-10-17T17:35:48.304Z,14.40
2018-10-17T17:38:17.499Z,15.10
2018-10-17T17:40:46.508Z,7.55
2018-10-17T17:43:16.016Z,9.13
2018-10-17T17:45:45.271Z,12.23
2018-10-17T17:48:14.495Z,10.50
2018-10-17T17:50:43.766Z,13.70
2018-10-17T17:53:12.887Z,12.88
2018-10-17T17:55:41.935Z,13.35
2018-10-17T17:58:11.387Z,13.50
2018-10-17T18:00:40.402Z,10.28
2018-10-17T18:03:09.678Z,12.93
2018-10-17T18:05:38.916Z,15.53
2018-10-17T18:08:07.797Z,15.48
2018-10-17T18:10:36.975Z,18.32
2018-10-17T18:13:06.303Z,14.38
2018-10-17T18:15:35.483Z,17.48
2018-10-17T18:18:04.612Z,11.35
2018-10-17T18:20:34.527Z,14.70
2018-10-17T18:23:03.672Z,15.15
2018-10-17T18:25:32.707Z,14.23
2018-10-17T18:28:02.198Z,12.82
2018-10-17T18:30:31.123Z,13.05
2018-10-17T18:33:00.253Z,12.73
2018-10-17T18:35:29.402Z,13.60
2018-10-17T18:37:58.558Z,11.93
2018-10-17T18:40:27.816Z,16.70
2018-10-17T18:42:56.975Z,11.48
2018-10-17T18:45:26.179Z,11.68
2018-10-17T18:47:55.442Z,15.20
2018-10-17T18:50:24.687Z,13.30
2018-10-17T18:52:53.778Z,14.25
2018-10-17T18:55:22.618Z,11.38
2018-10-17T18:57:51.939Z,12.85
2018-10-17T19:00:21.035Z,11.33
2018-10-17T19:02:49.947Z,15.45
2018-10-17T19:05:18.811Z,21.35
2018-10-17T19:07:47.949Z,17.65
2018-10-17T19:10:16.955Z,13.45
2018-10-17T19:12:47.321Z,17.95
2018-10-17T19:15:16.896Z,14.40
2018-10-17T19:17:46.002Z,16.15
2018-10-17T19:20:15.808Z,21.80
2018-10-17T19:22:45.230Z,16.77
2018-10-17T19:25:15.791Z,13.35
2018-10-17T19:27:45.460Z,19.07
2018-10-17T19:30:15.118Z,15.80
2018-10-17T19:32:45.076Z,14.63
2018-10-17T19:35:14.633Z,12.00
2018-10-17T19:37:43.675Z,13.55
2018-10-17T19:40:12.668Z,19.95
2018-10-17T19:42:42.129Z,15.83
2018-10-17T19:45:11.688Z,19.60
2018-10-17T19:47:40.777Z,13.05
2018-10-17T19:50:10.492Z,14.75
2018-10-17T19:52:39.294Z,15.68
2018-10-17T19:55:09.727Z,22.48
2018-10-17T19:57:39.095Z,16.93
2018-10-17T20:00:10.435Z,15.78
2018-10-17T20:02:40.087Z,18.37
2018-10-17T20:05:09.264Z,13.15
2018-10-17T20:07:38.753Z,19.35
2018-10-17T20:10:08.083Z,19.15
2018-10-17T20:12:37.546Z,18.45
2018-10-17T20:15:07.109Z,17.35
2018-10-17T20:17:36.330Z,17.50
2018-10-17T20:20:05.859Z,22.10
2018-10-17T20:22:34.989Z,14.28
2018-10-17T20:25:04.264Z,16.23
2018-10-17T20:27:33.480Z,14.23
2018-10-17T20:30:02.630Z,15.30
2018-10-17T20:32:31.927Z,28.00
2018-10-17T20:35:01.196Z,20.20
2018-10-17T20:37:30.383Z,30.62
2018-10-17T20:39:59.567Z,17.73
2018-10-17T20:42:28.506Z,18.32
2018-10-17T20:44:57.753Z,20.75
2018-10-17T20:47:26.952Z,17.55
2018-10-17T20:49:55.833Z,20.57
2018-10-17T20:52:25.198Z,16.57
2018-10-17T20:54:54.790Z,15.70
2018-10-17T20:57:23.880Z,15.20
2018-10-17T20:59:53.049Z,21.42
2018-10-17T21:02:22.434Z,14.58
2018-10-17T21:04:51.464Z,16.45
2018-10-17T21:07:20.442Z,12.65
2018-10-17T21:09:49.923Z,18.20
2018-10-17T21:12:19.023Z,19.60
2018-10-17T21:14:48.075Z,18.00
2018-10-17T21:17:17.519Z,15.90
2018-10-17T21:19:46.575Z,18.30
2018-10-17T21:22:15.746Z,15.85
2018-10-17T21:24:45.098Z,15.30
2018-10-17T21:27:14.199Z,15.55
2018-10-17T21:29:43.258Z,14.33
2018-10-17T21:32:12.603Z,19.80
2018-10-17T21:34:41.991Z,12.85
2018-10-17T21:37:11.033Z,17.23
2018-10-17T21:39:40.444Z,14.95
2018-10-17T21:42:09.898Z,15.32
2018-10-17T21:44:39.247Z,21.45
2018-10-17T21:47:09.356Z,18.95
2018-10-17T21:49:39.012Z,14.98
2018-10-17T21:52:07.998Z,21.17
2018-10-17T21:54:37.700Z,17.35
2018-10-17T21:57:08.090Z,21.80
2018-10-17T21:59:37.258Z,19.92
2018-10-17T22:02:06.519Z,20.85
2018-10-17T22:07:19.021Z,18.27
2018-10-17T22:09:48.477Z,21.68
2018-10-17T22:12:17.666Z,24.07
2018-10-17T22:14:47.016Z,18.23
2018-10-17T22:17:16.149Z,22.85
2018-10-17T22:19:45.287Z,17.62
2018-10-17T22:22:14.714Z,20.32
2018-10-17T22:24:43.895Z,18.23
2018-10-17T22:27:13.004Z,19.32
2018-10-17T22:29:42.260Z,16.05
2018-10-17T22:32:11.554Z,17.25
2018-10-17T22:34:40.687Z,18.05
2018-10-17T22:37:10.021Z,19.35
2018-10-17T22:39:39.846Z,18.42
2018-10-17T22:42:08.951Z,20.12
2018-10-17T22:44:38.459Z,15.08
2018-10-17T22:47:07.823Z,13.53
2018-10-17T22:49:37.024Z,17.57
2018-10-17T22:52:06.471Z,19.52
2018-10-17T22:54:35.592Z,23.25
2018-10-17T22:57:04.740Z,11.83
2018-10-17T22:59:33.866Z,20.02
2018-10-17T23:02:03.316Z,12.55
2018-10-17T23:04:32.362Z,11.65
2018-10-17T23:07:01.674Z,13.13
2018-10-17T23:09:30.914Z,13.68
2018-10-17T23:11:59.943Z,14.45
2018-10-17T23:14:29.366Z,11.85
2018-10-17T23:16:58.610Z,14.13
2018-10-17T23:19:27.713Z,12.18
2018-10-17T23:21:57.087Z,11.65
2018-10-17T23:24:26.147Z,12.85
2018-10-17T23:26:55.058Z,10.78
2018-10-17T23:29:24.233Z,11.78
2018-10-17T23:31:53.178Z,11.78
2018-10-17T23:34:22.270Z,9.83
2018-10-17T23:36:51.536Z,12.80
2018-10-17T23:39:20.663Z,11.65
2018-10-17T23:41:49.921Z,12.75
2018-10-17T23:44:19.154Z,9.50
2018-10-17T23:46:48.168Z,15.72
2018-10-17T23:49:17.310Z,12.28
2018-10-17T23:51:46.630Z,13.10
2018-10-17T23:54:15.699Z,19.00
2018-10-17T23:56:44.810Z,17.35
2018-10-17T23:59:23.835Z,13.60
